Sagiv Natcho

Olheiro-Chefe - Hapoel Beer Sheva
17 Abr 2029
Terça-feira
Processo

Personalidade

Adaptabilidade (15) Ambição (11) Controvérsia (7) Lealdade (14) Pressão (13) Profissionalismo (9) Espírito Esportivo (5) Temperamento (14)

Perfil

Estilo de Treinamento Democrático
Licença Continental B
Determinação 9
Gestão de Pessoas 10
Motivação 5
Disciplina 10
Satisfação no Trabalho
100%
Fadiga
0%
Função Olheiro-Chefe
Salário 41.7K p/s
Contrato 14.03.2030

Desempenho

Comportamento Bom
Eficácia do Treinamento
44%
Desenvolvimento do Jogador
50%
Prevenção de Lesões
40%
Implementação Tática
50%

Monitorando agora

66
Jogador Clube Status Habilidade Confiança Observado Última observação Último voto
Yoav Gerafi Hapoel Haifa Ativo 118 / 115 72% 1 29.01.2029 Aprovar
Amit Lemkin Hapoel Tel Aviv Ativo 113 / 111 72% 1 22.01.2029 Aprovar
Percy Zungu Platinum Stars Negociando 77 / 93 40% 2 08.01.2029 -
Matvey Kuznetsov Spartak Moscow Ativo 83 / 102 40% 1 08.01.2029 -
Henrik Skretteberg Sandefjord Ativo 97 / 88 40% 1 08.01.2029 -
Daniel Dappa Hapoel Tel Aviv Ativo 114 / 124 72% 1 06.01.2029 Aprovar
Raul Kumar Istra 1961 Ativo 117 / 130 40% 1 02.01.2029 -
Yegor Gurenko Naxxar Lions Ativo 79 / 86 40% 1 02.01.2029 -
Loui Whitehead Tranmere Rovers Ativo 75 / 97 40% 1 02.01.2029 -
Gustavo Lozano Zamora Ativo 104 / 106 40% 1 30.08.2028 -
Simón Bodnar River Plate Ativo 117 / 121 40% 1 30.08.2028 -
Douglas Owusu Hapoel Tel Aviv Ativo 126 / 126 65% 1 28.08.2028 Aprovar
Aytor Herrera Llaneros Ativo 91 / 90 40% 2 16.08.2028 -
Agustín Medina River Plate Ativo 119 / 125 40% 2 16.08.2028 -
Isaiah Alakiu Persebaya Ativo 89 / 92 40% 1 16.08.2028 -
Miguel Figueiredo Benfica Ativo 128 / 128 40% 2 07.08.2028 -
Joel Ezra Enyimba Ativo 89 / 98 40% 1 07.08.2028 -
Ronwen Mabunda Platinum Stars Ativo 102 / 92 40% 1 04.07.2028 -
Rhys Chadwick Peterborough United Ativo 117 / 111 40% 2 03.07.2028 -
Matty Cudjoe Bnei Sakhnin Ativo 117 / 124 65% 1 03.07.2028 Aprovar
Alvin Ayman Gor Mahia Ativo 89 / 90 40% 1 03.07.2028 -
Jack Shorrock Port Vale Ativo 99 / 102 40% 2 01.07.2028 -
Martim Cunha Porto Ativo 116 / 110 40% 3 29.06.2028 -
Jonathan Whiteley Harrogate Town Ativo 78 / 99 40% 1 29.06.2028 -
Pape Cabral Monaco Ativo 127 / 123 40% 2 28.06.2028 -
Konta Ismaily Ativo 97 / 117 40% 2 28.06.2028 -
Joe Emery Salford City Ativo 107 / 106 40% 1 28.06.2028 -
Mohamed Bendary ENPPI Ativo 100 / 101 40% 2 27.06.2028 -
Zahir Ibarra Eibar Ativo 107 / 106 40% 1 27.06.2028 -
Jacob Watson Doncaster Rovers Ativo 86 / 103 40% 1 27.06.2028 -
Martín Jiménez Universidad de Concepcion Ativo 93 / 111 40% 2 26.06.2028 -
Gideon Manaseh Ikorodu City Ativo 97 / 94 40% 1 26.06.2028 -
Rafael Mota Sporting CP Ativo 103 / 126 40% 1 21.06.2028 -
Kwesi Sorotu Badori Berekum Chelsea Ativo 99 / 106 40% 1 18.06.2028 -
David Damboama El-Kanemi Warriors Ativo 100 / 87 40% 1 18.06.2028 -
Ronnie Harvey Colchester United Ativo 82 / 95 40% 2 17.06.2028 -
Owen Eames Milton Keynes Dons Ativo 107 / 109 40% 3 17.06.2028 -
Lewi Richards Walsall Ativo 107 / 112 40% 1 17.06.2028 -
Mattia Mannini Juve Stabia Ativo 120 / 119 40% 2 16.06.2028 -
Owen Foye Swindon Town Ativo 99 / 94 40% 1 13.06.2028 -
Jorthy Mokio Ajax Ativo 142 / 147 40% 2 12.06.2028 -
João Brito Porto Ativo 112 / 116 40% 1 07.06.2028 -
Yoan Pereira Porto Ativo 89 / 102 40% 1 04.06.2028 -
Jan Bürger Burton Albion Ativo 129 / 127 40% 1 04.06.2028 -
Bernardo Lima Porto Ativo 96 / 113 40% 1 03.06.2028 -
Kauã Elias Shakhtar Ativo 143 / 143 40% 1 17.01.2028 -
Valentín Lucero Septemvri Ativo 80 / 98 40% 1 17.01.2028 -
Noa Mikić HNK Gorica Ativo 112 / 114 40% 1 03.01.2028 -
Lucan Louw US Bougouni Ativo 97 / 89 40% 4 30.08.2027 -
Joseph Namatane FC Metz Ativo 110 / 93 40% 1 06.06.2027 -
Moncef Zekri Sporting CP Ativo 97 / 98 40% 1 03.06.2027 -
Dennis Konney US Bougouba Ativo 78 / 86 40% 1 22.01.2027 -
Patrik Kovács Fehervar Ativo 99 / 99 40% 1 19.01.2027 -
Gia Nadareishvili AS Trencin Ativo 113 / 105 40% 1 12.01.2027 -
Luka Handanovic NK Domzale Ativo 86 / 110 40% 1 04.01.2027 -
Octavio Ontivero Lanús Ativo 114 / 112 40% 1 02.01.2027 -
Zach Mitchell Charlton Athletic Ativo 112 / 107 40% 1 24.08.2026 -
Jack Fletcher Manchester United Ativo 114 / 111 40% 1 20.08.2026 -
Matías Magdaleno Estudiantes Ativo 98 / 101 40% 1 19.08.2026 -
Callum Olusesi Tottenham Ativo 93 / 110 40% 1 17.08.2026 -
Dario Župarić Hapoel Haifa Ativo 116 / 115 55% 1 10.08.2026 -
Facundo González River Plate Ativo 91 / 98 40% 1 10.08.2026 -
Kian Best Chelsea Ativo 80 / 103 40% 1 09.08.2026 -
Mohammed Abu-Nil Bnei Sakhnin Ativo 91 / 94 55% 1 03.08.2026 -
Nahuel Romero San Lorenzo Ativo 86 / 92 40% 1 03.08.2026 -
Joaquín Parras Independiente Ativo 79 / 99 40% 1 03.08.2026 -